Time;durP1;ratioP1;P1;durP2;ratioP2;P2;SDS_P1;SDS_P2;PMS_P1;PMS_P2;Temp;Humidity;BMP_temperature;BMP_pressure;BME280_temperature;BME280_humidity;BME280_pressure;Samples;Min_cycle;Max_cycle;Signal;HPM_P1;HPM_P2
2023/04/03 00:01:25;;;;;;;6.80;5.80;;;;;;;-128.00;-1.00;-1.00;106483;1254;1014167;-52
2023/04/03 00:04:13;;;;;;;10.50;6.90;;;;;;;-128.00;-1.00;-1.00;106404;1257;1009890;-50
2023/04/03 00:06:41;;;;;;;7.70;6.10;;;;;;;-128.00;-1.00;-1.00;106388;1254;1002549;-49
2023/04/03 00:09:10;;;;;;;9.80;8.50;;;;;;;-128.00;-1.00;-1.00;106407;1254;1012563;-50
2023/04/03 00:11:39;;;;;;;7.80;7.10;;;;;;;-128.00;-1.00;-1.00;106470;1254;1012283;-49
2023/04/03 00:14:07;;;;;;;7.90;5.90;;;;;;;-128.00;-1.00;-1.00;106479;1254;1002453;-48
2023/04/03 00:16:35;;;;;;;7.80;6.90;;;;;;;-128.00;-1.00;-1.00;106422;1253;1010713;-52
2023/04/03 00:19:06;;;;;;;8.10;6.60;;;;;;;-128.00;-1.00;-1.00;106463;1254;1011289;-49
2023/04/03 00:21:34;;;;;;;7.10;5.40;;;;;;;-128.00;-1.00;-1.00;106479;1254;1002663;-48
2023/04/03 00:24:02;;;;;;;6.00;5.40;;;;;;;-128.00;-1.00;-1.00;106509;1254;1012022;-53
2023/04/03 00:26:38;;;;;;;7.70;6.10;;;;;;;-128.00;-1.00;-1.00;106398;1254;1012394;-49
2023/04/03 00:29:06;;;;;;;5.80;5.10;;;;;;;-128.00;-1.00;-1.00;103069;1257;1002195;-49
2023/04/03 00:31:34;;;;;;;6.30;5.70;;;;;;;-128.00;-1.00;-1.00;106422;1259;1010901;-52
2023/04/03 00:34:02;;;;;;;7.10;5.70;;;;;;;-128.00;-1.00;-1.00;106404;1254;1013424;-51
2023/04/03 00:36:31;;;;;;;5.90;5.30;;;;;;;-128.00;-1.00;-1.00;106162;1254;1012578;-48
2023/04/03 00:38:59;;;;;;;5.80;5.30;;;;;;;-128.00;-1.00;-1.00;103080;1259;1012963;-49
2023/04/03 00:41:27;;;;;;;5.80;5.30;;;;;;;-128.00;-1.00;-1.00;104818;1258;1010518;-47
2023/04/03 00:43:55;;;;;;;7.30;6.40;;;;;;;-128.00;-1.00;-1.00;102738;1254;1002872;-46
2023/04/03 00:46:23;;;;;;;8.50;6.80;;;;;;;-128.00;-1.00;-1.00;102798;1258;1002729;-46
2023/04/03 00:48:51;;;;;;;6.20;5.60;;;;;;;-128.00;-1.00;-1.00;102985;1253;1003980;-52
2023/04/03 00:51:25;;;;;;;8.20;5.30;;;;;;;-128.00;-1.00;-1.00;102968;1258;1012381;-45
2023/04/03 00:53:55;;;;;;;7.40;6.70;;;;;;;-128.00;-1.00;-1.00;102921;1259;1010213;-47
2023/04/03 00:56:25;;;;;;;8.80;6.60;;;;;;;-128.00;-1.00;-1.00;102761;1254;1011184;-50
2023/04/03 00:58:59;;;;;;;7.90;7.20;;;;;;;-128.00;-1.00;-1.00;103060;1254;1012257;-46
2023/04/03 01:01:28;;;;;;;8.60;7.80;;;;;;;-128.00;-1.00;-1.00;102810;1259;1012568;-50
2023/04/03 01:04:00;;;;;;;9.80;8.90;;;;;;;-128.00;-1.00;-1.00;103245;1254;1012378;-48
2023/04/03 01:06:32;;;;;;;12.80;10.60;;;;;;;-128.00;-1.00;-1.00;103684;1253;1011227;-51
2023/04/03 01:09:05;;;;;;;14.50;11.80;;;;;;;-128.00;-1.00;-1.00;103101;1258;1011911;-50
2023/04/03 01:11:33;;;;;;;12.20;10.90;;;;;;;-128.00;-1.00;-1.00;102462;1259;1014184;-49
2023/04/03 01:15:10;;;;;;;18.30;15.90;;;;;;;;;;102507;1289;601663;-48
2023/04/03 01:17:39;;;;;;;16.40;14.40;;;;;;;;;;104765;1263;59051;-47
2023/04/03 01:20:26;;;;;;;23.40;18.30;;;;;;;;;;105481;1264;59122;-49
2023/04/03 01:23:05;;;;;;;17.30;15.00;;;;;;;;;;105339;1266;61303;-50
2023/04/03 01:25:34;;;;;;;17.00;14.70;;;;;;;;;;104937;1266;59039;-51
2023/04/03 01:28:02;;;;;;;14.80;13.40;;;;;;;;;;105215;1264;150019;-48
2023/04/03 01:30:31;;;;;;;13.00;10.80;;;;;;;;;;105118;1265;59057;-51
2023/04/03 01:32:59;;;;;;;16.90;13.90;;;;;;;;;;104916;1262;59035;-52
2023/04/03 01:35:28;;;;;;;14.80;13.30;;;;;;;;;;106178;1264;60580;-49
2023/04/03 01:37:57;;;;;;;15.20;12.10;;;;;;;;;;105317;1263;59153;-53
2023/04/03 01:40:25;;;;;;;13.10;11.60;;;;;;;;;;104627;1263;60436;-53
2023/04/03 01:42:53;;;;;;;12.70;11.00;;;;;;;;;;105020;1263;59755;-52
2023/04/03 01:45:21;;;;;;;10.90;9.80;;;;;;;;;;105083;1263;59746;-52
2023/04/03 01:47:49;;;;;;;11.10;9.00;;;;;;;;;;104960;1267;61423;-50
2023/04/03 01:50:17;;;;;;;9.60;8.80;;;;;;;;;;105116;1268;59729;-52
2023/04/03 01:52:47;;;;;;;9.40;8.50;;;;;;;;;;105011;1266;61368;-52
2023/04/03 01:55:14;;;;;;;7.40;6.80;;;;;;;;;;104971;1266;59702;-50
2023/04/03 01:57:43;;;;;;;7.80;7.20;;;;;;;;;;106144;1263;60457;-52
2023/04/03 02:00:12;;;;;;;6.30;5.90;;;;;;;;;;105026;1264;61385;-52
2023/04/03 02:02:40;;;;;;;7.20;6.60;;;;;;;;;;105026;1266;59778;-53
2023/04/03 02:05:08;;;;;;;5.60;5.30;;;;;;;;;;105964;1266;60740;-51
2023/04/03 02:07:36;;;;;;;6.70;5.80;;;;;;;;;;105316;1266;59521;-52
2023/04/03 02:10:05;;;;;;;7.10;6.30;;;;;;;;;;105343;1264;59646;-51
2023/04/03 02:12:33;;;;;;;6.10;5.60;;;;;;;;;;104848;1263;61329;-51
2023/04/03 02:15:03;;;;;;;5.40;5.00;;;;;;;;;;105516;1267;59648;-52
2023/04/03 02:17:31;;;;;;;6.00;5.40;;;;;;;;;;106020;1263;60896;-52
2023/04/03 02:19:59;;;;;;;5.10;4.70;;;;;;;;;;104806;1266;60115;-51
2023/04/03 02:22:27;;;;;;;4.90;4.50;;;;;;;;;;104967;1263;59810;-51
2023/04/03 02:24:55;;;;;;;5.00;4.50;;;;;;;;;;104782;1263;61647;-52
2023/04/03 02:27:24;;;;;;;5.20;4.40;;;;;;;;;;105042;1268;59570;-52
2023/04/03 02:29:51;;;;;;;5.50;5.00;;;;;;;;;;104597;1263;60496;-50
2023/04/03 02:32:20;;;;;;;5.00;4.60;;;;;;;;;;104765;1264;59734;-52
2023/04/03 02:34:48;;;;;;;4.90;4.20;;;;;;;;;;104910;1264;59596;-51
2023/04/03 02:37:16;;;;;;;3.90;3.50;;;;;;;;;;105559;1263;61266;-49
2023/04/03 02:39:45;;;;;;;6.50;4.90;;;;;;;;;;104641;1269;59586;-51
2023/04/03 02:42:14;;;;;;;4.50;3.70;;;;;;;;;;105352;1267;60484;-51
2023/04/03 02:44:42;;;;;;;3.40;3.10;;;;;;;;;;108545;1262;57411;-53
2023/04/03 02:47:10;;;;;;;6.60;5.10;;;;;;;;;;108375;1264;58692;-53
2023/04/03 02:49:38;;;;;;;5.10;3.70;;;;;;;;;;108438;1263;61615;-52
2023/04/03 02:52:06;;;;;;;3.90;3.50;;;;;;;;;;108544;1263;58044;-52
2023/04/03 02:54:34;;;;;;;3.80;2.60;;;;;;;;;;108350;1263;60860;-52
2023/04/03 02:57:04;;;;;;;3.40;2.70;;;;;;;;;;108412;1263;57418;-52
2023/04/03 02:59:32;;;;;;;4.50;3.80;;;;;;;;;;108553;1263;57752;-51
2023/04/03 03:02:00;;;;;;;5.00;3.50;;;;;;;;;;108482;1267;61081;-52
2023/04/03 03:04:28;;;;;;;4.40;4.10;;;;;;;;;;108490;1263;58476;-53
2023/04/03 03:06:57;;;;;;;11.60;4.70;;;;;;;;;;108425;1263;60833;-53
2023/04/03 03:09:26;;;;;;;6.20;5.00;;;;;;;;;;108435;1266;57525;-53
2023/04/03 03:11:55;;;;;;;4.50;4.10;;;;;;;;;;108491;1263;58703;-52
2023/04/03 03:14:26;;;;;;;12.00;4.70;;;;;;;;;;108540;1263;60120;-52
2023/04/03 03:16:54;;;;;;;6.90;5.10;;;;;;;;;;108398;1263;57571;-52
2023/04/03 03:19:22;;;;;;;4.90;4.50;;;;;;;;;;108528;1263;59707;-53
2023/04/03 03:21:52;;;;;;;5.90;5.10;;;;;;;;;;108470;1263;57777;-53
2023/04/03 03:24:20;;;;;;;5.00;4.60;;;;;;;;;;108611;1263;58252;-52
2023/04/03 03:26:48;;;;;;;6.80;5.30;;;;;;;;;;108411;1263;61498;-52
2023/04/03 03:29:16;;;;;;;5.90;5.30;;;;;;;;;;108281;1263;57649;-53
2023/04/03 03:31:44;;;;;;;5.50;5.00;;;;;;;;;;104683;1269;60505;-51
2023/04/03 03:34:12;;;;;;;4.80;4.40;;;;;;;;;;107115;1262;59618;-51
2023/04/03 03:36:41;;;;;;;5.20;4.70;;;;;;;;;;104631;1263;59657;-50
2023/04/03 03:39:10;;;;;;;5.50;5.00;;;;;;;;;;105622;1267;60189;-52
2023/04/03 03:41:38;;;;;;;6.10;5.40;;;;;;;;;;105494;1266;59622;-53
2023/04/03 03:44:06;;;;;;;6.30;5.70;;;;;;;;;;104983;1263;60489;-51
2023/04/03 03:46:35;;;;;;;6.40;5.80;;;;;;;;;;104949;1263;59660;-52
2023/04/03 03:49:03;;;;;;;6.60;6.00;;;;;;;;;;105448;1264;59545;-52
2023/04/03 03:51:32;;;;;;;8.00;7.30;;;;;;;;;;104958;1263;61427;-52
2023/04/03 03:54:00;;;;;;;7.10;6.40;;;;;;;;;;105105;1263;59660;-51
2023/04/03 03:56:29;;;;;;;6.40;5.80;;;;;;;;;;105728;1258;60868;-52
2023/04/03 03:58:56;;;;;;;8.90;5.70;;;;;;;;;;105494;1259;59730;-52
2023/04/03 04:01:25;;;;;;;8.20;6.20;;;;;;;;;;106185;1255;59692;-52
2023/04/03 04:03:54;;;;;;;5.50;5.00;;;;;;;;;;105126;1257;61101;-52
2023/04/03 04:06:25;;;;;;;9.80;6.40;;;;;;;;;;105123;1260;59762;-52
2023/04/03 04:08:54;;;;;;;6.60;6.00;;;;;;;;;;105774;1257;60899;-51
2023/04/03 04:11:23;;;;;;;6.50;6.00;;;;;;;;;;105273;1254;59653;-53
2023/04/03 04:13:51;;;;;;;7.80;6.90;;;;;;;;;;105229;1256;59599;-51
2023/04/03 04:16:20;;;;;;;6.90;5.70;;;;;;;;;;106481;1258;61340;-52
2023/04/03 04:18:49;;;;;;;7.90;6.60;;;;;;;;;;105369;1262;59732;-50
2023/04/03 04:21:21;;;;;;;6.80;6.10;;;;;;;;;;105328;1256;60775;-51
2023/04/03 04:23:50;;;;;;;6.30;5.80;;;;;;;;;;105321;1257;59766;-52
2023/04/03 04:26:18;;;;;;;6.50;5.80;;;;;;;;;;105723;1256;59690;-50
2023/04/03 04:28:46;;;;;;;5.20;4.80;;;;;;;;;;105481;1257;60472;-51
2023/04/03 04:31:15;;;;;;;6.10;4.50;;;;;;;;;;105911;1261;59678;-48
2023/04/03 04:33:44;;;;;;;4.50;3.90;;;;;;;;;;105410;1262;60806;-53
2023/04/03 04:36:14;;;;;;;4.40;3.90;;;;;;;;;;105742;1257;59628;-51
2023/04/03 04:38:46;;;;;;;6.10;5.60;;;;;;;;;;105565;1256;59769;-53
2023/04/03 04:41:15;;;;;;;5.10;4.00;;;;;;;;;;105787;1256;60055;-53
2023/04/03 04:43:44;;;;;;;5.40;5.00;;;;;;;;;;105487;1261;58678;-52
2023/04/03 04:46:12;;;;;;;7.20;5.60;;;;;;;;;;105458;1257;60724;-53
2023/04/03 04:48:45;;;;;;;6.60;5.70;;;;;;;;;;105387;1256;59787;-52
2023/04/03 04:51:13;;;;;;;9.50;7.50;;;;;;;;;;105120;1256;59632;-52
2023/04/03 04:53:43;;;;;;;10.10;7.70;;;;;;;;;;105915;1260;61087;-52
2023/04/03 04:56:14;;;;;;;7.90;6.20;;;;;;;;;;104877;1261;59762;-49
2023/04/03 04:58:44;;;;;;;5.90;5.30;;;;;;;;;;104927;1260;60835;-52
2023/04/03 05:01:11;;;;;;;5.40;4.90;;;;;;;;;;104719;1258;59976;-51
2023/04/03 05:03:47;;;;;;;6.00;5.20;;;;;;;;;;104943;1256;59523;-53
2023/04/03 05:06:16;;;;;;;7.20;5.00;;;;;;;;;;106269;1259;61298;-52
2023/04/03 05:08:44;;;;;;;3.70;3.40;;;;;;;;;;107571;1259;58473;-52
2023/04/03 05:11:13;;;;;;;4.90;4.40;;;;;;;;;;104950;1260;60974;-52
2023/04/03 05:13:41;;;;;;;7.20;4.70;;;;;;;;;;106423;1260;59711;-53
2023/04/03 05:16:10;;;;;;;5.40;4.20;;;;;;;;;;105740;1255;59834;-51
2023/04/03 05:18:42;;;;;;;6.00;5.10;;;;;;;;;;104900;1254;60457;-51
2023/04/03 05:21:14;;;;;;;5.60;5.10;;;;;;;;;;106040;1259;59612;-51
2023/04/03 05:23:43;;;;;;;7.40;6.10;;;;;;;;;;106171;1254;61126;-51
2023/04/03 05:26:11;;;;;;;9.20;7.10;;;;;;;;;;105248;1259;62076;-51
2023/04/03 05:28:42;;;;;;;7.80;6.10;;;;;;;;;;104683;1255;60434;-52
2023/04/03 05:31:12;;;;;;;5.30;4.80;;;;;;;;;;104764;1254;61495;-52
2023/04/03 05:33:42;;;;;;;6.90;4.80;;;;;;;;;;106307;1254;60598;-51
2023/04/03 05:36:13;;;;;;;7.70;5.80;;;;;;;;;;105445;1254;60614;-50
2023/04/03 05:38:44;;;;;;;7.80;6.20;;;;;;;;;;105378;1256;60357;-51
2023/04/03 05:41:13;;;;;;;8.20;5.60;;;;;;;;;;108665;1254;59054;-53
2023/04/03 05:43:41;;;;;;;6.50;5.60;;;;;;;;;;108773;1254;62309;-53
2023/04/03 05:46:10;;;;;;;4.40;4.10;;;;;;;;;;108727;1254;58464;-53
2023/04/03 05:48:39;;;;;;;5.60;4.70;;;;;;;;;;108721;1257;60212;-53
2023/04/03 05:51:13;;;;;;;5.20;4.70;;;;;;;;;;108671;1257;58437;-53
2023/04/03 05:53:41;;;;;;;5.30;4.90;;;;;;;;;;108829;1259;58675;-54
2023/04/03 05:56:11;;;;;;;7.20;5.10;;;;;;;;;;108825;1254;62355;-53
2023/04/03 05:58:39;;;;;;;5.60;5.10;;;;;;;;;;108939;1256;58541;-53
2023/04/03 06:01:07;;;;;;;5.40;4.20;;;;;;;;;;108893;1254;60748;-54
2023/04/03 06:03:39;;;;;;;4.90;4.50;;;;;;;;;;108901;1254;60527;-53
2023/04/03 06:06:08;;;;;;;5.20;4.80;;;;;;;;;;108991;1260;58405;-54
2023/04/03 06:08:36;;;;;;;4.90;4.40;;;;;;;;;;109094;1257;62167;-54
2023/04/03 06:11:05;;;;;;;4.60;4.20;;;;;;;;;;109073;1256;58393;-54
2023/04/03 06:13:34;;;;;;;4.40;4.10;;;;;;;;;;108939;1254;60830;-54
2023/04/03 06:16:03;;;;;;;7.30;5.20;;;;;;;;;;108918;1255;58480;-53
2023/04/03 06:18:31;;;;;;;4.30;3.70;;;;;;;;;;109046;1254;58453;-53
2023/04/03 06:21:00;;;;;;;5.10;4.70;;;;;;;;;;109010;1255;61475;-54
2023/04/03 06:23:28;;;;;;;7.70;5.50;;;;;;;;;;105631;1259;60451;-50
2023/04/03 06:25:57;;;;;;;5.20;4.80;;;;;;;;;;105353;1260;60546;-53
2023/04/03 06:28:30;;;;;;;5.70;5.30;;;;;;;;;;105282;1254;60565;-52
2023/04/03 06:30:58;;;;;;;6.00;5.40;;;;;;;;;;105382;1257;60473;-52
2023/04/03 06:33:27;;;;;;;7.10;4.90;;;;;;;;;;105430;1257;61827;-51
2023/04/03 06:35:56;;;;;;;5.40;5.00;;;;;;;;;;106199;1259;59096;-53
2023/04/03 06:38:24;;;;;;;4.70;4.30;;;;;;;;;;105271;1257;60766;-52
2023/04/03 06:40:52;;;;;;;8.50;5.70;;;;;;;;;;106557;1254;60540;-53
2023/04/03 06:43:20;;;;;;;5.60;5.10;;;;;;;;;;105733;1254;60355;-52
2023/04/03 06:45:51;;;;;;;6.50;5.90;;;;;;;;;;107055;1254;62065;-52
2023/04/03 06:48:21;;;;;;;6.10;5.60;;;;;;;;;;106642;1257;60526;-52
2023/04/03 06:50:49;;;;;;;6.80;6.30;;;;;;;;;;108722;1256;60686;-51
2023/04/03 06:53:16;;;;;;;8.50;6.00;;;;;;;;;;106371;1259;60533;-52
2023/04/03 06:55:44;;;;;;;8.00;5.80;;;;;;;;;;105460;1260;60443;-51
2023/04/03 06:58:15;;;;;;;5.90;5.50;;;;;;;;;;105527;1254;62268;-52
2023/04/03 07:00:42;;;;;;;6.00;5.00;;;;;;;;;;105449;1259;60409;-51
2023/04/03 07:03:12;;;;;;;4.40;4.10;;;;;;;;;;105493;1254;60513;-49
2023/04/03 07:05:42;;;;;;;5.80;5.10;;;;;;;;;;106031;1259;60479;-52
2023/04/03 07:08:10;;;;;;;6.40;5.50;;;;;;;;;;105450;1253;60511;-51
2023/04/03 07:10:38;;;;;;;6.20;5.50;;;;;;;;;;105880;1258;62126;-51
2023/04/03 07:13:06;;;;;;;7.20;6.20;;;;;;;;;;105020;1254;60514;-51
2023/04/03 07:15:36;;;;;;;6.00;5.30;;;;;;;;;;104799;1254;60515;-51
2023/04/03 07:18:05;;;;;;;5.60;5.10;;;;;;;;;;108777;1253;58303;-52
2023/04/03 07:20:36;;;;;;;5.40;4.00;;;;;;;;;;106613;1258;59520;-52
2023/04/03 07:23:06;;;;;;;5.50;4.40;;;;;;;;;;108530;1254;60546;-53
2023/04/03 07:25:34;;;;;;;7.90;5.20;;;;;;;;;;108933;1254;58797;-53
2023/04/03 07:28:02;;;;;;;5.20;4.80;;;;;;;;;;107899;1254;60599;-51
2023/04/03 07:30:32;;;;;;;4.30;3.90;;;;;;;;;;104793;1259;60382;-52
2023/04/03 07:33:00;;;;;;;5.80;4.10;;;;;;;;;;105545;1256;60514;-53
2023/04/03 07:35:29;;;;;;;4.40;4.20;;;;;;;;;;108939;1255;61984;-51
2023/04/03 07:37:57;;;;;;;8.00;5.90;;;;;;;;;;108810;1254;58298;-51
2023/04/03 07:40:25;;;;;;;5.50;5.00;;;;;;;;;;108864;1254;60496;-50
2023/04/03 07:42:56;;;;;;;4.80;4.30;;;;;;;;;;108801;1256;59958;-50
2023/04/03 07:45:24;;;;;;;5.10;4.60;;;;;;;;;;108764;1256;58990;-51
2023/04/03 07:47:54;;;;;;;5.20;4.70;;;;;;;;;;108656;1257;61656;-51
2023/04/03 07:50:22;;;;;;;4.30;4.00;;;;;;;;;;107475;1257;58528;-52
2023/04/03 07:52:52;;;;;;;5.40;5.00;;;;;;;;;;108281;1254;60852;-52
2023/04/03 07:55:20;;;;;;;9.80;4.60;;;;;;;;;;106952;1258;60457;-52
2023/04/03 07:57:48;;;;;;;5.10;4.70;;;;;;;;;;105575;1254;60784;-52
2023/04/03 08:00:19;;;;;;;4.90;4.60;;;;;;;;;;105966;1255;62247;-51
2023/04/03 08:03:04;;;;;;;6.30;5.70;;;;;;;;;;105607;1254;60397;-52
2023/04/03 08:05:40;;;;;;;5.50;4.80;;;;;;;;;;105491;1254;62231;-51
2023/04/03 08:08:08;;;;;;;5.00;4.70;;;;;;;;;;105247;1259;62174;-50
2023/04/03 08:10:36;;;;;;;5.20;4.30;;;;;;;;;;105353;1254;60442;-51
2023/04/03 08:13:04;;;;;;;5.00;4.50;;;;;;;;;;105362;1257;62237;-50
2023/04/03 08:15:33;;;;;;;6.10;5.60;;;;;;;;;;105395;1260;60440;-52
2023/04/03 08:18:02;;;;;;;6.10;5.40;;;;;;;;;;105366;1254;60522;-51
2023/04/03 08:20:30;;;;;;;5.10;4.60;;;;;;;;;;108861;1254;58671;-52
2023/04/03 08:22:58;;;;;;;5.00;4.50;;;;;;;;;;106928;1254;60450;-52
2023/04/03 08:25:26;;;;;;;4.50;3.90;;;;;;;;;;107481;1257;62010;-51
2023/04/03 08:27:54;;;;;;;5.30;4.70;;;;;;;;;;105267;1259;60875;-50
2023/04/03 08:30:22;;;;;;;4.90;4.50;;;;;;;;;;105264;1254;61824;-49
2023/04/03 08:32:52;;;;;;;4.40;4.00;;;;;;;;;;105304;1259;60757;-51
2023/04/03 08:35:20;;;;;;;5.00;4.60;;;;;;;;;;108915;1254;58795;-52
2023/04/03 08:37:48;;;;;;;4.90;4.40;;;;;;;;;;108933;1257;62549;-52
2023/04/03 08:40:16;;;;;;;5.30;4.90;;;;;;;;;;108988;1254;58811;-53
2023/04/03 08:42:57;;;;;;;4.80;4.40;;;;;;;;;;109034;1254;59547;-53
2023/04/03 08:45:27;;;;;;;4.20;3.90;;;;;;;;;;105808;1260;60351;-50
2023/04/03 08:48:01;;;;;;;4.60;3.80;;;;;;;;;;105357;1258;60504;-50
2023/04/03 08:50:49;;;;;;;4.10;3.80;;;;;;;;;;109062;1254;60874;-53
2023/04/03 08:53:23;;;;;;;4.40;4.00;;;;;;;;;;109026;1254;67124;-52
2023/04/03 08:55:51;;;;;;;7.40;3.60;;;;;;;;;;109082;1256;60181;-53
2023/04/03 08:58:23;;;;;;;4.10;3.70;;;;;;;;;;108995;1258;59763;-53
2023/04/03 09:01:03;;;;;;;4.80;3.70;;;;;;;;;;108847;1254;58692;-53
2023/04/03 09:03:34;;;;;;;5.20;4.10;;;;;;;;;;108747;1254;60965;-53
2023/04/03 09:06:08;;;;;;;4.40;4.00;;;;;;;;;;108860;1254;58341;-52
2023/04/03 09:08:42;;;;;;;3.90;3.50;;;;;;;;;;109005;1254;60479;-53
2023/04/03 09:11:21;;;;;;;4.20;3.50;;;;;;;;;;108910;1254;58432;-53
2023/04/03 09:14:00;;;;;;;3.00;2.70;;;;;;;;;;108768;1257;59846;-51
2023/04/03 09:16:39;;;;;;;3.50;3.20;;;;;;;;;;106545;1255;62632;-50
2023/04/03 09:19:15;;;;;;;4.40;2.80;;;;;;;;;;105361;1259;60370;-51
2023/04/03 09:21:46;;;;;;;4.20;3.30;;;;;;;;;;105243;1259;60594;-49
2023/04/03 09:24:14;;;;;;;4.60;3.90;;;;;;;;;;105317;1262;60388;-51
2023/04/03 09:26:48;;;;;;;5.70;4.60;;;;;;;;;;106449;1255;61795;-51
2023/04/03 09:29:18;;;;;;;7.20;4.50;;;;;;;;;;105239;1259;62381;-51
2023/04/03 09:31:48;;;;;;;8.40;3.50;;;;;;;;;;106887;1257;60466;-52
2023/04/03 09:34:20;;;;;;;4.00;3.00;;;;;;;;;;106405;1257;60813;-52
2023/04/03 09:36:51;;;;;;;3.00;2.60;;;;;;;;;;105379;1257;60542;-52
2023/04/03 09:39:28;;;;;;;3.20;2.20;;;;;;;;;;105445;1254;60610;-51
2023/04/03 09:42:00;;;;;;;3.70;2.30;;;;;;;;;;105402;1254;62178;-52
2023/04/03 09:44:29;;;;;;;3.60;3.30;;;;;;;;;;105450;1254;60319;-50
2023/04/03 09:46:57;;;;;;;3.10;2.40;;;;;;;;;;105574;1259;60686;-52
2023/04/03 09:49:26;;;;;;;2.40;2.20;;;;;;;;;;105682;1254;60485;-49
2023/04/03 09:51:54;;;;;;;2.30;2.10;;;;;;;;;;105510;1259;60354;-51
2023/04/03 09:54:26;;;;;;;4.00;2.00;;;;;;;;;;105524;1257;61854;-52
2023/04/03 09:56:55;;;;;;;3.90;1.50;;;;;;;;;;105510;1259;60461;-52
2023/04/03 09:59:24;;;;;;;2.70;2.50;;;;;;;;;;105626;1254;60941;-51
2023/04/03 10:01:58;;;;;;;3.30;1.70;;;;;;;;;;106073;1260;60801;-51
2023/04/03 10:04:26;;;;;;;4.50;2.50;;;;;;;;;;105325;1260;60437;-51
2023/04/03 10:06:55;;;;;;;2.40;2.20;;;;;;;;;;106296;1255;61989;-51
2023/04/03 10:09:23;;;;;;;7.40;2.50;;;;;;;;;;108281;1259;58913;-54
2023/04/03 10:11:57;;;;;;;3.00;2.60;;;;;;;;;;105869;1254;60282;-49
2023/04/03 10:14:26;;;;;;;3.10;2.70;;;;;;;;;;107086;1254;60318;-51
2023/04/03 10:17:03;;;;;;;3.60;2.30;;;;;;;;;;105456;1259;60402;-50
2023/04/03 10:19:42;;;;;;;2.90;2.50;;;;;;;;;;105450;1257;62179;-50
2023/04/03 10:22:27;;;;;;;6.60;2.70;;;;;;;;;;105266;1257;60603;-49
2023/04/03 10:25:03;;;;;;;3.20;3.00;;;;;;;;;;105394;1258;60677;-52
2023/04/03 10:28:06;;;;;;;3.80;2.60;;;;;;;;;;105201;1259;60527;-51
2023/04/03 10:30:52;;;;;;;2.50;2.30;;;;;;;;;;104405;1264;60323;-52
2023/04/03 10:33:24;;;;;;;3.50;2.60;;;;;;;;;;106579;1254;62152;-51
2023/04/03 10:35:52;;;;;;;3.20;3.00;;;;;;;;;;104801;1259;60414;-51
2023/04/03 10:38:24;;;;;;;5.70;3.50;;;;;;;;;;104617;1259;60358;-51
2023/04/03 10:41:06;;;;;;;3.30;2.90;;;;;;;;;;104650;1254;60994;-50
2023/04/03 10:43:45;;;;;;;3.80;2.20;;;;;;;;;;105060;1254;60379;-51
2023/04/03 10:46:16;;;;;;;5.90;3.00;;;;;;;;;;105378;1259;62167;-51
2023/04/03 10:48:44;;;;;;;2.70;2.40;;;;;;;;;;106239;1255;60475;-51
2023/04/03 10:51:12;;;;;;;4.60;2.80;;;;;;;;;;105438;1257;60432;-51
2023/04/03 10:53:43;;;;;;;3.00;2.30;;;;;;;;;;105252;1256;60498;-51
2023/04/03 10:56:40;;;;;;;2.30;1.40;;;;;;;;;;105609;1255;60941;-51
2023/04/03 10:59:27;;;;;;;3.40;2.20;;;;;;;;;;107955;1254;61878;-51
2023/04/03 11:01:56;;;;;;;2.70;1.70;;;;;;;;;;107321;1258;59007;-51
2023/04/03 11:04:25;;;;;;;3.00;1.80;;;;;;;;;;106042;1260;60559;-52
2023/04/03 11:06:56;;;;;;;2.40;1.70;;;;;;;;;;105411;1260;60533;-50
2023/04/03 11:09:31;;;;;;;2.20;2.00;;;;;;;;;;105406;1255;60514;-53
2023/04/03 11:12:04;;;;;;;3.30;2.20;;;;;;;;;;105277;1259;63850;-52
2023/04/03 11:14:34;;;;;;;2.70;1.90;;;;;;;;;;106474;1260;60496;-49
2023/04/03 11:17:05;;;;;;;6.30;1.80;;;;;;;;;;105184;1262;60826;-49
2023/04/03 11:19:36;;;;;;;4.20;2.10;;;;;;;;;;105032;1260;61840;-52
2023/04/03 11:22:21;;;;;;;3.40;2.80;;;;;;;;;;105229;1259;60329;-52
2023/04/03 11:25:06;;;;;;;2.90;1.80;;;;;;;;;;105116;1260;61868;-52
2023/04/03 11:27:39;;;;;;;2.40;2.00;;;;;;;;;;108910;1257;58345;-51
2023/04/03 11:30:09;;;;;;;6.00;2.10;;;;;;;;;;105319;1260;60992;-53
2023/04/03 11:32:56;;;;;;;2.80;2.30;;;;;;;;;;108899;1254;59576;-54
2023/04/03 11:35:24;;;;;;;2.80;2.10;;;;;;;;;;108801;1254;59910;-51
2023/04/03 11:37:53;;;;;;;2.80;2.20;;;;;;;;;;108999;1258;62314;-49
2023/04/03 11:40:25;;;;;;;3.10;2.80;;;;;;;;;;109060;1253;58315;-47
2023/04/03 11:42:59;;;;;;;3.00;2.70;;;;;;;;;;108063;1258;61158;-52
2023/04/03 11:45:29;;;;;;;3.70;2.70;;;;;;;;;;108953;1255;58403;-48
2023/04/03 11:48:16;;;;;;;3.30;2.70;;;;;;;;;;106685;1260;60572;-48
2023/04/03 11:50:52;;;;;;;3.40;2.90;;;;;;;;;;105269;1260;62349;-49
2023/04/03 11:53:36;;;;;;;2.80;2.50;;;;;;;;;;105266;1257;60418;-46
2023/04/03 11:56:27;;;;;;;3.20;2.90;;;;;;;;;;104909;1267;61192;-51
2023/04/03 11:59:10;;;;;;;2.60;2.20;;;;;;;;;;104949;1259;60533;-47
2023/04/03 12:01:51;;;;;;;2.00;1.30;;;;;;;;;;105374;1255;60435;-51
2023/04/03 12:04:20;;;;;;;0.60;0.60;;;;;;;;;;105445;1267;61865;-52
2023/04/03 12:06:54;;;;;;;1.20;0.60;;;;;;;;;;108976;1257;58602;-50
2023/04/03 12:09:23;;;;;;;0.70;0.60;;;;;;;;;;108987;1254;60857;-49
2023/04/03 12:11:52;;;;;;;0.50;0.50;;;;;;;;;;108809;1259;59342;-52
2023/04/03 12:14:22;;;;;;;1.40;0.60;;;;;;;;;;108955;1254;58850;-51
2023/04/03 12:16:51;;;;;;;0.60;0.60;;;;;;;;;;108994;1257;61615;-50
2023/04/03 12:19:30;;;;;;;0.90;0.50;;;;;;;;;;108408;1260;59444;-51
2023/04/03 12:22:10;;;;;;;1.00;0.50;;;;;;;;;;105239;1260;60622;-49
2023/04/03 12:24:42;;;;;;;0.60;0.60;;;;;;;;;;105324;1260;60299;-50
2023/04/03 12:27:16;;;;;;;0.60;0.60;;;;;;;;;;108505;1254;58190;-50
2023/04/03 12:29:52;;;;;;;1.10;0.60;;;;;;;;;;105228;1255;61883;-47
2023/04/03 12:32:42;;;;;;;0.90;0.60;;;;;;;;;;106472;1260;59003;-52
2023/04/03 12:35:21;;;;;;;0.90;0.60;;;;;;;;;;106046;1259;60881;-48
2023/04/03 12:37:49;;;;;;;0.70;0.60;;;;;;;;;;105997;1262;60530;-49
2023/04/03 12:40:18;;;;;;;1.40;0.90;;;;;;;;;;105483;1260;60332;-47
2023/04/03 12:42:52;;;;;;;0.90;0.70;;;;;;;;;;105458;1254;61846;-49
2023/04/03 12:45:21;;;;;;;0.80;0.70;;;;;;;;;;105459;1254;60564;-52
2023/04/03 12:47:51;;;;;;;1.40;0.70;;;;;;;;;;105456;1257;60546;-47
2023/04/03 12:50:24;;;;;;;0.90;0.70;;;;;;;;;;105494;1260;60510;-50
2023/04/03 12:52:58;;;;;;;0.80;0.80;;;;;;;;;;105541;1255;60425;-49
2023/04/03 12:55:26;;;;;;;1.10;0.80;;;;;;;;;;105505;1260;61696;-52
2023/04/03 12:57:54;;;;;;;2.00;0.70;;;;;;;;;;105461;1264;60686;-50
2023/04/03 13:00:23;;;;;;;0.90;0.80;;;;;;;;;;105432;1260;60456;-50
2023/04/03 13:02:56;;;;;;;0.80;0.80;;;;;;;;;;105420;1263;61368;-51
2023/04/03 13:05:24;;;;;;;0.80;0.70;;;;;;;;;;106264;1259;60421;-45
2023/04/03 13:07:55;;;;;;;1.10;0.80;;;;;;;;;;105877;1254;62093;-49
2023/04/03 13:10:26;;;;;;;0.70;0.70;;;;;;;;;;105582;1260;60540;-48
2023/04/03 13:12:56;;;;;;;0.80;0.70;;;;;;;;;;105413;1260;60459;-49
2023/04/03 13:15:29;;;;;;;1.20;0.90;;;;;;;;;;106111;1256;60463;-49
2023/04/03 13:18:01;;;;;;;1.30;0.80;;;;;;;;;;105731;1260;60325;-49
2023/04/03 13:20:30;;;;;;;2.80;0.90;;;;;;;;;;107840;1260;62148;-50
2023/04/03 13:23:03;;;;;;;2.10;1.00;;;;;;;;;;105197;1261;60740;-52
2023/04/03 13:25:32;;;;;;;1.00;0.90;;;;;;;;;;106155;1259;60494;-52
2023/04/03 13:28:01;;;;;;;0.90;0.80;;;;;;;;;;106636;1261;145920;-51
2023/04/03 13:32:04;;;;;;;1.10;0.90;;;;;;;;;;102517;1289;600495;-51
2023/04/03 13:34:42;;;;;;;3.50;0.90;;;;;;;;;;104670;1264;58914;-45
2023/04/03 13:37:20;;;;;;;1.00;0.80;;;;;;;;;;105040;1265;59139;-50
2023/04/03 13:39:56;;;;;;;2.10;0.90;;;;;;;;;;105400;1264;59585;-50
2023/04/03 13:42:26;;;;;;;2.90;0.80;;;;;;;;;;105047;1263;59772;-53
2023/04/03 13:45:11;;;;;;;0.80;0.80;;;;;;;;;;105131;1260;154006;-47
2023/04/03 13:47:40;;;;;;;1.00;0.90;;;;;;;;;;105630;1262;59036;-49
2023/04/03 13:50:11;;;;;;;1.60;0.80;;;;;;;;;;105892;1263;59052;-47
2023/04/03 13:52:43;;;;;;;1.00;0.90;;;;;;;;;;106360;1259;60567;-48
2023/04/03 13:55:16;;;;;;;0.80;0.70;;;;;;;;;;105425;1263;59146;-46
2023/04/03 13:57:54;;;;;;;0.90;0.80;;;;;;;;;;105419;1263;60801;-48
2023/04/03 14:00:29;;;;;;;1.20;0.80;;;;;;;;;;105435;1263;59720;-48
2023/04/03 14:03:12;;;;;;;1.10;0.80;;;;;;;;;;105341;1260;59730;-45
2023/04/03 14:05:40;;;;;;;0.70;0.70;;;;;;;;;;106528;1258;61516;-47
2023/04/03 14:08:09;;;;;;;0.80;0.70;;;;;;;;;;107260;1260;59192;-50
2023/04/03 14:10:40;;;;;;;0.90;0.70;;;;;;;;;;105405;1263;60154;-52
2023/04/03 14:13:12;;;;;;;0.90;0.50;;;;;;;;;;106675;1263;59612;-47
2023/04/03 14:15:43;;;;;;;0.60;0.50;;;;;;;;;;105024;1260;60213;-46
2023/04/03 14:18:11;;;;;;;0.70;0.70;;;;;;;;;;108715;1259;61346;-49
2023/04/03 14:20:39;;;;;;;0.60;0.50;;;;;;;;;;105654;1257;59505;-47
2023/04/03 14:23:07;;;;;;;0.80;0.80;;;;;;;;;;105720;1260;60436;-47
2023/04/03 14:25:38;;;;;;;1.50;0.60;;;;;;;;;;106891;1258;59842;-48
2023/04/03 14:28:18;;;;;;;0.80;0.70;;;;;;;;;;105382;1259;59723;-45
2023/04/03 14:30:47;;;;;;;1.10;0.60;;;;;;;;;;105344;1257;61376;-50
2023/04/03 14:33:16;;;;;;;1.30;0.50;;;;;;;;;;105389;1257;59727;-49